Time;durP1;ratioP1;P1;durP2;ratioP2;P2;SDS_P1;SDS_P2;PMS_P1;PMS_P2;Temp;Humidity;BMP_temperature;BMP_pressure;BME280_temperature;BME280_humidity;BME280_pressure;Samples;Min_cycle;Max_cycle;Signal;HPM_P1;HPM_P2
2023/11/20 00:02:35;;;;;;;3.38;1.20;;;;;;;10.25;100.00;100141.91;6299784;28;20044;-71
2023/11/20 00:05:37;;;;;;;3.10;1.33;;;;;;;10.24;100.00;100149.84;6299371;28;20467;-74
2023/11/20 00:08:40;;;;;;;1.23;0.90;;;;;;;10.26;100.00;100143.56;6299741;28;20060;-74
2023/11/20 00:11:41;;;;;;;2.28;1.17;;;;;;;10.22;100.00;100131.56;6293345;28;20429;-73
2023/11/20 00:14:43;;;;;;;1.08;0.70;;;;;;;10.20;100.00;100143.09;6297242;28;20372;-76
2023/11/20 00:17:44;;;;;;;2.08;0.73;;;;;;;10.27;100.00;100134.78;6299666;28;20052;-74
2023/11/20 00:20:47;;;;;;;1.52;0.80;;;;;;;10.29;100.00;100125.00;6299774;28;20049;-75
2023/11/20 00:23:50;;;;;;;0.60;0.60;;;;;;;10.30;100.00;100131.09;6292505;28;20054;-74
2023/11/20 00:26:52;;;;;;;1.02;0.50;;;;;;;10.28;100.00;100125.13;6290363;28;20051;-74
2023/11/20 00:29:53;;;;;;;0.68;0.60;;;;;;;10.31;100.00;100130.16;6302353;28;20055;-74
2023/11/20 00:32:55;;;;;;;0.80;0.68;;;;;;;10.29;100.00;100132.91;6298870;28;20056;-76
2023/11/20 00:35:57;;;;;;;1.50;0.77;;;;;;;10.29;100.00;100138.16;6291323;28;20037;-75
2023/11/20 00:38:59;;;;;;;1.60;0.90;;;;;;;10.31;100.00;100127.53;6300820;28;20045;-74
2023/11/20 00:42:00;;;;;;;1.77;1.20;;;;;;;10.36;100.00;100134.22;6287217;28;20044;-74
2023/11/20 00:45:02;;;;;;;3.83;0.90;;;;;;;10.36;100.00;100130.75;6303461;28;20040;-75
2023/11/20 00:48:04;;;;;;;1.38;0.52;;;;;;;10.35;100.00;100131.66;6303969;28;20133;-74
2023/11/20 00:51:07;;;;;;;2.53;0.98;;;;;;;10.40;100.00;100129.59;6302644;28;20056;-74
2023/11/20 00:54:08;;;;;;;3.13;0.80;;;;;;;10.41;100.00;100126.88;6296620;28;20052;-74
2023/11/20 00:57:09;;;;;;;1.27;0.80;;;;;;;10.44;100.00;100130.25;6303671;28;20055;-75
2023/11/20 01:00:14;;;;;;;1.50;0.77;;;;;;;10.44;100.00;100140.75;6303359;28;20059;-73
2023/11/20 01:03:15;;;;;;;1.08;0.88;;;;;;;10.47;100.00;100149.28;6303385;28;20135;-74
2023/11/20 01:06:18;;;;;;;1.20;0.85;;;;;;;10.41;100.00;100152.31;6294343;28;20056;-74
2023/11/20 01:09:20;;;;;;;0.95;0.68;;;;;;;10.42;100.00;100146.13;6303401;28;20106;-75
2023/11/20 01:12:21;;;;;;;1.45;0.70;;;;;;;10.44;100.00;100141.59;6303027;28;20052;-74
2023/11/20 01:15:23;;;;;;;0.95;0.85;;;;;;;10.43;100.00;100139.06;6303092;28;20353;-75
2023/11/20 01:18:24;;;;;;;1.48;0.90;;;;;;;10.43;100.00;100139.06;6303099;28;20056;-74
2023/11/20 01:21:27;;;;;;;1.25;0.70;;;;;;;10.45;100.00;100145.09;6303247;28;20060;-74
2023/11/20 01:24:29;;;;;;;1.48;0.88;;;;;;;10.45;100.00;100140.69;6302911;28;20048;-74
2023/11/20 01:27:30;;;;;;;0.43;0.40;;;;;;;10.45;100.00;100150.34;6302973;28;20133;-74
2023/11/20 01:30:31;;;;;;;2.45;0.90;;;;;;;10.48;100.00;100142.25;6302785;28;20359;-74
2023/11/20 01:33:33;;;;;;;0.90;0.75;;;;;;;10.46;100.00;100142.38;6302919;28;20127;-75
2023/11/20 01:36:36;;;;;;;1.40;0.90;;;;;;;10.46;100.00;100147.63;6302614;28;20087;-74
2023/11/20 01:39:37;;;;;;;2.20;0.85;;;;;;;10.50;100.00;100151.75;6302633;28;20048;-74
2023/11/20 01:42:39;;;;;;;0.60;0.50;;;;;;;10.49;100.00;100151.81;6302478;28;20057;-74
2023/11/20 01:45:41;;;;;;;1.83;1.00;;;;;;;10.55;100.00;100147.03;6289430;28;20051;-71
2023/11/20 01:48:45;;;;;;;2.55;1.00;;;;;;;10.53;100.00;100153.31;6290383;28;20422;-74
2023/11/20 01:51:48;;;;;;;0.88;0.80;;;;;;;10.53;100.00;100151.53;6288091;28;20044;-73
2023/11/20 01:54:49;;;;;;;1.67;0.82;;;;;;;10.58;100.00;100146.84;6290799;28;20048;-73
2023/11/20 01:57:51;;;;;;;0.80;0.77;;;;;;;10.56;100.00;100153.97;6289484;28;20349;-72
2023/11/20 02:00:53;;;;;;;1.25;0.80;;;;;;;10.60;100.00;100147.59;6290121;28;20048;-72
2023/11/20 02:03:59;;;;;;;4.28;1.10;;;;;;;10.56;100.00;100146.09;6300646;28;20068;-73
2023/11/20 02:07:04;;;;;;;1.15;0.90;;;;;;;10.54;100.00;100140.09;6301498;28;20049;-71
2023/11/20 02:10:07;;;;;;;0.80;0.70;;;;;;;10.60;100.00;100150.22;6302074;28;20441;-72
2023/11/20 02:13:08;;;;;;;3.95;1.50;;;;;;;10.64;100.00;100150.88;6301801;28;20113;-72
2023/11/20 02:16:10;;;;;;;2.38;0.93;;;;;;;10.64;100.00;100145.63;6289656;28;20444;-72
2023/11/20 02:19:13;;;;;;;1.30;1.00;;;;;;;10.65;100.00;100144.66;6288862;28;20041;-72
2023/11/20 02:22:16;;;;;;;3.72;0.90;;;;;;;10.66;100.00;100148.97;6288205;28;20169;-71
2023/11/20 02:25:19;;;;;;;2.13;0.90;;;;;;;10.64;100.00;100143.81;6289449;28;20098;-73
2023/11/20 02:28:27;;;;;;;4.25;0.90;;;;;;;10.65;100.00;100142.88;6287201;28;20048;-71
2023/11/20 02:31:33;;;;;;;1.80;1.13;;;;;;;10.62;100.00;100143.06;6288140;28;20361;-73
2023/11/20 02:34:36;;;;;;;3.17;1.25;;;;;;;10.64;100.00;100137.72;6287959;28;20052;-73
2023/11/20 02:37:37;;;;;;;1.52;1.02;;;;;;;10.60;100.00;100138.88;6294745;28;20044;-72
2023/11/20 02:40:39;;;;;;;2.10;1.08;;;;;;;10.58;100.00;100141.59;6301301;28;20063;-72
2023/11/20 02:43:41;;;;;;;1.85;1.33;;;;;;;10.64;100.00;100138.56;6301010;28;20048;-73
2023/11/20 02:46:44;;;;;;;1.60;1.10;;;;;;;10.59;100.00;100131.94;6301151;28;20044;-73
2023/11/20 02:49:45;;;;;;;1.70;1.27;;;;;;;10.60;100.00;100139.69;6301058;28;20060;-73
2023/11/20 02:52:47;;;;;;;1.25;0.75;;;;;;;10.59;100.00;100139.81;6300650;28;20048;-73
2023/11/20 02:55:49;;;;;;;2.67;1.23;;;;;;;10.57;100.00;100137.25;6300880;28;20052;-74
2023/11/20 02:58:50;;;;;;;1.38;1.15;;;;;;;10.55;100.00;100148.81;6300762;28;20047;-74
2023/11/20 03:01:53;;;;;;;3.67;0.98;;;;;;;10.58;100.00;100135.47;6300489;28;20582;-74
2023/11/20 03:04:56;;;;;;;0.88;0.70;;;;;;;10.63;100.00;100143.94;6300226;28;20484;-74
2023/11/20 03:07:58;;;;;;;1.95;0.98;;;;;;;10.64;100.00;100130.69;6300266;28;20071;-75
2023/11/20 03:10:59;;;;;;;5.82;1.05;;;;;;;10.62;100.00;100134.34;6300392;28;20055;-75
2023/11/20 03:14:01;;;;;;;1.65;0.88;;;;;;;10.60;100.00;100139.69;6300325;28;20056;-73
2023/11/20 03:17:04;;;;;;;1.38;0.85;;;;;;;10.61;100.00;100143.16;6300374;28;20048;-75
2023/11/20 03:20:07;;;;;;;1.52;0.80;;;;;;;10.62;100.00;100134.34;6300674;28;20053;-75
2023/11/20 03:23:10;;;;;;;1.80;1.00;;;;;;;10.57;100.00;100137.25;6300200;28;20064;-75
2023/11/20 03:26:12;;;;;;;1.50;0.82;;;;;;;10.63;100.00;100144.78;6299395;28;20448;-73
2023/11/20 03:29:13;;;;;;;2.70;0.73;;;;;;;10.65;100.00;100139.41;6300194;28;20052;-74
2023/11/20 03:32:16;;;;;;;1.02;0.63;;;;;;;10.60;100.00;100134.44;6300014;28;20049;-75
2023/11/20 03:35:17;;;;;;;2.85;0.60;;;;;;;10.63;100.00;100142.16;6300335;28;20049;-74
2023/11/20 03:38:19;;;;;;;0.55;0.55;;;;;;;10.61;100.00;100146.63;6300021;28;20056;-74
2023/11/20 03:41:20;;;;;;;1.20;0.65;;;;;;;10.65;100.00;100149.94;6300290;28;20048;-73
2023/11/20 03:44:21;;;;;;;0.80;0.70;;;;;;;10.65;100.00;100149.94;6300006;28;20045;-74
2023/11/20 03:47:24;;;;;;;2.28;0.65;;;;;;;10.57;100.00;100146.94;6299823;28;20352;-74
2023/11/20 03:50:26;;;;;;;0.90;0.50;;;;;;;10.54;100.00;100147.97;6299889;28;20072;-74
2023/11/20 03:53:27;;;;;;;3.10;0.60;;;;;;;10.52;100.00;100146.38;6299828;28;20060;-74
2023/11/20 03:56:28;;;;;;;1.73;0.70;;;;;;;10.54;100.00;100153.25;6300041;28;20056;-72
2023/11/20 03:59:30;;;;;;;0.85;0.63;;;;;;;10.48;100.00;100150.97;6299858;28;20353;-73
2023/11/20 04:02:32;;;;;;;0.52;0.52;;;;;;;10.50;100.00;100149.13;6299847;28;20055;-74
2023/11/20 04:05:34;;;;;;;0.85;0.60;;;;;;;10.49;100.00;100150.06;6300063;28;20075;-74
2023/11/20 04:08:37;;;;;;;0.95;0.50;;;;;;;10.47;100.00;100151.91;6294248;28;20043;-72
2023/11/20 04:11:42;;;;;;;2.03;0.60;;;;;;;10.48;100.00;100152.75;6296249;28;20049;-73
2023/11/20 04:14:43;;;;;;;1.75;0.68;;;;;;;10.49;100.00;100151.81;6312421;28;20040;-73
2023/11/20 04:17:46;;;;;;;0.50;0.50;;;;;;;10.49;100.00;100157.94;6301107;28;20349;-74
2023/11/20 04:20:48;;;;;;;4.13;0.73;;;;;;;10.47;100.00;100149.28;6279603;28;20049;-74
2023/11/20 04:23:49;;;;;;;2.00;0.52;;;;;;;10.50;100.00;100154.38;6279396;28;20076;-74
2023/11/20 04:26:50;;;;;;;0.73;0.70;;;;;;;10.49;100.00;100154.44;6279375;28;20052;-74
2023/11/20 04:29:53;;;;;;;0.35;0.35;;;;;;;10.52;100.00;100167.41;6279536;28;20187;-74
2023/11/20 04:32:56;;;;;;;1.48;0.57;;;;;;;10.51;100.00;100158.66;6279100;28;20057;-73
2023/11/20 04:36:01;;;;;;;0.52;0.50;;;;;;;10.51;100.00;100158.66;6279342;28;20049;-72
2023/11/20 04:39:03;;;;;;;0.95;0.60;;;;;;;10.49;100.00;100159.69;6279391;28;20045;-73
2023/11/20 04:42:05;;;;;;;0.50;0.50;;;;;;;10.48;100.00;100169.38;6278979;28;20453;-74
2023/11/20 04:45:10;;;;;;;2.08;0.60;;;;;;;10.46;100.00;100165.16;6279028;28;20072;-75
2023/11/20 04:48:12;;;;;;;0.30;0.30;;;;;;;10.47;100.00;100166.84;6278967;28;20354;-74
2023/11/20 04:51:19;;;;;;;1.65;0.52;;;;;;;10.43;100.00;100162.72;6278950;28;20049;-75
2023/11/20 04:54:21;;;;;;;0.82;0.50;;;;;;;10.47;100.00;100169.47;6278787;28;20056;-73
2023/11/20 04:57:22;;;;;;;0.77;0.60;;;;;;;10.43;100.00;100167.97;6278824;28;20045;-75
2023/11/20 05:00:24;;;;;;;0.32;0.32;;;;;;;10.45;100.00;100174.00;6278648;28;20049;-74
2023/11/20 05:03:26;;;;;;;0.60;0.60;;;;;;;10.43;100.00;100174.06;6294135;28;20048;-74
2023/11/20 05:06:30;;;;;;;0.85;0.70;;;;;;;10.39;100.00;100167.31;6307651;22;20052;-82
2023/11/20 05:09:31;;;;;;;0.60;0.60;;;;;;;10.43;100.00;100168.81;6262198;28;20442;-87
2023/11/20 05:12:32;;;;;;;0.65;0.55;;;;;;;10.43;100.00;100174.06;6278388;28;20056;-81
2023/11/20 05:15:34;;;;;;;0.90;0.70;;;;;;;10.49;100.00;100173.69;6265156;28;20058;-85
2023/11/20 05:18:37;;;;;;;0.95;0.40;;;;;;;10.49;100.00;100175.47;6254121;28;20064;-84
2023/11/20 05:21:41;;;;;;;0.65;0.45;;;;;;;10.46;100.00;100178.28;6253963;28;20098;-81
2023/11/20 05:24:42;;;;;;;0.77;0.50;;;;;;;10.48;100.00;100184.28;6252354;28;20144;-81
2023/11/20 05:27:44;;;;;;;0.80;0.50;;;;;;;10.47;100.00;100179.97;6253474;28;20053;-81
2023/11/20 05:30:46;;;;;;;0.95;0.65;;;;;;;10.45;100.00;100192.38;6254049;28;20046;-83
2023/11/20 05:33:49;;;;;;;1.00;0.60;;;;;;;10.40;100.00;100185.63;6253314;28;20442;-82
2023/11/20 05:36:50;;;;;;;0.50;0.50;;;;;;;10.45;100.00;100185.34;6253078;28;20049;-83
2023/11/20 05:39:52;;;;;;;1.50;0.80;;;;;;;10.39;100.00;100189.16;6253540;28;20064;-82
2023/11/20 05:42:54;;;;;;;2.50;0.60;;;;;;;10.47;100.00;100193.94;6253044;28;20065;-81
2023/11/20 05:45:55;;;;;;;0.80;0.60;;;;;;;10.45;100.00;100197.63;6253095;28;20072;-81
2023/11/20 05:48:58;;;;;;;1.38;0.73;;;;;;;10.43;100.00;100197.69;6253197;28;20049;-83
2023/11/20 05:51:59;;;;;;;0.38;0.38;;;;;;;10.42;100.00;100198.66;6253047;28;20064;-83
2023/11/20 05:55:02;;;;;;;1.48;0.50;;;;;;;10.39;100.00;100191.78;6253194;28;20442;-83
2023/11/20 05:58:04;;;;;;;0.38;0.35;;;;;;;10.44;100.00;100206.44;6253047;28;20076;-84
2023/11/20 06:01:05;;;;;;;2.20;0.40;;;;;;;10.42;100.00;100198.66;6253069;28;20049;-83
2023/11/20 06:04:09;;;;;;;0.65;0.47;;;;;;;10.39;100.00;100201.44;6253033;28;20191;-83
2023/11/20 06:07:11;;;;;;;1.17;0.60;;;;;;;10.38;100.00;100203.25;6277817;28;20045;-84
2023/11/20 06:10:12;;;;;;;1.65;1.00;;;;;;;10.38;100.00;100194.53;6286412;28;20090;-84
2023/11/20 06:13:14;;;;;;;0.63;0.52;;;;;;;10.36;100.00;100196.41;6285472;28;20456;-82
2023/11/20 06:16:16;;;;;;;0.90;0.65;;;;;;;10.39;100.00;100201.44;6268687;28;20068;-77
2023/11/20 06:19:19;;;;;;;0.50;0.50;;;;;;;10.43;100.00;100200.34;6277406;28;20055;-80
2023/11/20 06:22:21;;;;;;;0.50;0.43;;;;;;;10.39;100.00;100198.81;6276624;28;20433;-79
2023/11/20 06:25:22;;;;;;;0.60;0.60;;;;;;;10.33;100.00;100207.09;6277077;28;20057;-83
2023/11/20 06:28:24;;;;;;;1.65;0.50;;;;;;;10.33;100.00;100196.59;6276574;28;20345;-80
2023/11/20 06:31:25;;;;;;;3.03;0.90;;;;;;;10.31;100.00;100222.97;6276621;28;20051;-79
2023/11/20 06:34:28;;;;;;;0.80;0.70;;;;;;;10.32;100.00;100214.13;6276359;28;20358;-80
2023/11/20 06:37:29;;;;;;;1.15;0.77;;;;;;;10.29;100.00;100224.81;6275652;28;20049;-80
2023/11/20 06:40:31;;;;;;;1.05;0.88;;;;;;;10.30;100.00;100217.78;6277160;28;20045;-81
2023/11/20 06:43:32;;;;;;;4.57;1.05;;;;;;;10.29;100.00;100223.97;6281491;28;20045;-80
2023/11/20 06:46:33;;;;;;;2.63;1.00;;;;;;;10.26;100.00;100219.72;6277713;28;20056;-81
2023/11/20 06:49:36;;;;;;;0.80;0.65;;;;;;;10.37;100.00;100230.44;6274469;28;20449;-82
2023/11/20 06:52:38;;;;;;;1.92;1.13;;;;;;;10.32;100.00;100236.94;6271621;28;20049;-81
2023/11/20 06:55:42;;;;;;;0.85;0.77;;;;;;;10.34;100.00;100241.13;6268039;28;20187;-79
2023/11/20 06:58:43;;;;;;;1.00;0.70;;;;;;;10.39;100.00;100251.38;6269768;28;20048;-81
2023/11/20 07:01:45;;;;;;;2.92;1.00;;;;;;;10.35;100.00;100253.31;6263669;28;20430;-81
2023/11/20 07:04:48;;;;;;;1.67;0.85;;;;;;;10.37;100.00;100255.88;6271278;28;20056;-80
2023/11/20 07:07:53;;;;;;;1.83;1.00;;;;;;;10.32;100.00;100266.66;6274383;28;20344;-82
2023/11/20 07:10:54;;;;;;;2.03;1.20;;;;;;;10.29;100.00;100272.09;6263334;28;20053;-80
2023/11/20 07:13:56;;;;;;;3.72;0.80;;;;;;;10.31;100.00;100274.59;6265386;28;20159;-80
2023/11/20 07:16:57;;;;;;;4.13;1.23;;;;;;;10.35;100.00;100273.50;6272704;28;20048;-80
2023/11/20 07:20:00;;;;;;;1.23;0.95;;;;;;;10.31;100.00;100279.88;6265121;28;20044;-81
2023/11/20 07:23:04;;;;;;;1.35;1.00;;;;;;;10.30;100.00;100281.66;6267076;28;20045;-80
2023/11/20 07:26:05;;;;;;;1.83;1.08;;;;;;;10.33;100.00;100278.00;6267468;28;20515;-80
2023/11/20 07:29:07;;;;;;;1.98;1.33;;;;;;;10.28;100.00;100285.31;6266960;28;20045;-81
2023/11/20 07:32:08;;;;;;;1.80;0.98;;;;;;;10.34;100.00;100298.06;6274690;28;20053;-80
2023/11/20 07:35:13;;;;;;;1.75;1.20;;;;;;;10.29;100.00;100287.84;6268858;28;20390;-83
2023/11/20 07:38:15;;;;;;;6.63;1.25;;;;;;;10.24;100.00;100286.41;6266763;28;20460;-83
2023/11/20 07:41:18;;;;;;;1.40;1.08;;;;;;;10.34;100.00;100287.56;6275584;28;20357;-80
2023/11/20 07:44:20;;;;;;;2.30;1.23;;;;;;;10.26;100.00;100290.63;6273245;28;20373;-79
2023/11/20 07:47:22;;;;;;;2.75;1.52;;;;;;;10.24;100.00;100289.91;6268537;28;20053;-81
2023/11/20 07:50:24;;;;;;;2.67;1.23;;;;;;;10.26;100.00;100298.53;6274464;28;20044;-76
2023/11/20 07:53:26;;;;;;;3.15;1.33;;;;;;;10.29;100.00;100302.75;6275075;28;20162;-81
2023/11/20 07:56:28;;;;;;;2.50;1.17;;;;;;;10.27;100.00;100307.28;6274976;28;20060;-80
2023/11/20 07:59:29;;;;;;;3.83;1.20;;;;;;;10.26;100.00;100293.25;6271958;28;20045;-77
2023/11/20 08:02:31;;;;;;;3.72;1.17;;;;;;;10.26;100.00;100308.19;6269508;28;20048;-79
2023/11/20 08:05:34;;;;;;;1.60;1.20;;;;;;;10.26;100.00;100310.81;6273297;28;20045;-80
2023/11/20 08:08:35;;;;;;;1.33;0.93;;;;;;;10.25;100.00;100317.00;6266216;28;20045;-79
2023/11/20 08:11:37;;;;;;;6.75;1.23;;;;;;;10.25;100.00;100303.88;6275341;28;20056;-79
2023/11/20 08:14:38;;;;;;;2.42;1.55;;;;;;;10.23;100.00;100313.59;6275007;28;20485;-78
2023/11/20 08:17:40;;;;;;;4.80;1.63;;;;;;;10.21;100.00;100318.94;6274384;28;20045;-81
2023/11/20 08:20:43;;;;;;;2.17;1.52;;;;;;;10.23;100.00;100317.06;6268567;28;20369;-79
2023/11/20 08:23:44;;;;;;;2.80;1.35;;;;;;;10.28;100.00;100316.84;6265587;28;20045;-79
2023/11/20 08:26:46;;;;;;;2.92;1.67;;;;;;;10.26;100.00;100313.44;6253018;28;20046;-83
2023/11/20 08:29:48;;;;;;;3.30;1.73;;;;;;;10.26;100.00;100319.53;6250173;28;20049;-85
2023/11/20 08:32:50;;;;;;;3.53;1.48;;;;;;;10.26;100.00;100318.69;6249869;28;20041;-81
2023/11/20 08:35:55;;;;;;;3.72;1.80;;;;;;;10.28;100.00;100328.19;6249986;28;20049;-78
2023/11/20 08:38:56;;;;;;;4.03;1.83;;;;;;;10.24;100.00;100316.16;6250174;28;20052;-78
2023/11/20 08:41:58;;;;;;;2.90;1.08;;;;;;;10.28;100.00;100319.47;6250290;28;20097;-87
2023/11/20 08:45:00;;;;;;;4.88;1.33;;;;;;;10.27;100.00;100321.25;6250412;28;20132;-85
2023/11/20 08:48:03;;;;;;;1.83;1.30;;;;;;;10.29;100.00;100318.50;6274360;28;20334;-81
2023/11/20 08:51:10;;;;;;;2.03;1.20;;;;;;;10.27;100.00;100315.16;6250360;28;20049;-85
2023/11/20 08:54:11;;;;;;;4.95;2.17;;;;;;;10.26;100.00;100321.31;6257386;28;20378;-78
2023/11/20 08:57:12;;;;;;;7.78;1.20;;;;;;;10.34;100.00;100332.22;6266424;28;20429;-80
2023/11/20 09:00:15;;;;;;;2.67;1.20;;;;;;;10.31;100.00;100332.38;6276643;28;20056;-80
2023/11/20 09:03:17;;;;;;;1.60;1.33;;;;;;;10.28;100.00;100340.47;6264711;28;20049;-81
2023/11/20 09:06:19;;;;;;;1.60;1.50;;;;;;;10.24;100.00;100338.91;6253707;28;20053;-81
2023/11/20 09:09:21;;;;;;;4.72;1.00;;;;;;;10.16;100.00;100342.81;6253771;28;20053;-79
2023/11/20 09:12:22;;;;;;;9.25;1.45;;;;;;;10.21;100.00;100345.19;6253817;28;20057;-78
2023/11/20 09:15:26;;;;;;;5.03;1.75;;;;;;;10.12;100.00;100338.69;6262767;28;20468;-79
2023/11/20 09:18:28;;;;;;;4.60;2.03;;;;;;;10.19;100.00;100347.06;6259496;28;20052;-80
2023/11/20 09:21:30;;;;;;;5.50;2.00;;;;;;;10.16;100.00;100345.44;6263648;28;20053;-78
2023/11/20 09:24:32;;;;;;;5.93;1.70;;;;;;;10.13;100.00;100350.91;6278496;28;20067;-80
2023/11/20 09:27:34;;;;;;;5.60;1.35;;;;;;;10.14;100.00;100349.13;6278219;28;20045;-79
2023/11/20 09:30:35;;;;;;;7.43;1.35;;;;;;;10.06;100.00;100351.34;6278114;28;20056;-77
2023/11/20 09:33:37;;;;;;;3.40;1.15;;;;;;;10.06;100.00;100360.06;6277774;28;20068;-78
2023/11/20 09:36:40;;;;;;;2.80;1.40;;;;;;;10.01;100.00;100359.47;6277638;28;20071;-79
2023/11/20 09:39:42;;;;;;;2.88;1.15;;;;;;;10.08;100.00;100366.09;6273306;28;20048;-79
2023/11/20 09:42:45;;;;;;;8.07;1.30;;;;;;;10.09;100.00;100366.91;6273389;28;20042;-80
2023/11/20 09:45:50;;;;;;;8.57;1.75;;;;;;;10.00;100.00;100360.41;6253402;28;20369;-80
2023/11/20 09:48:52;;;;;;;6.53;1.48;;;;;;;10.03;100.00;100360.22;6252980;28;20049;-82
2023/11/20 09:51:57;;;;;;;12.13;1.92;;;;;;;10.06;100.00;100357.44;6253239;28;20053;-81
2023/11/20 09:54:58;;;;;;;6.80;1.77;;;;;;;10.08;100.00;100359.97;6252843;28;20436;-80
2023/11/20 09:58:00;;;;;;;5.28;1.73;;;;;;;10.08;100.00;100346.81;6252948;28;20088;-80
2023/11/20 10:01:05;;;;;;;7.57;2.03;;;;;;;10.10;100.00;100365.97;6263241;28;20045;-80
2023/11/20 10:04:07;;;;;;;8.35;2.15;;;;;;;10.05;100.00;100363.63;6273337;28;20361;-78
2023/11/20 10:07:13;;;;;;;5.65;2.30;;;;;;;10.10;100.00;100368.59;6268749;28;20049;-81
2023/11/20 10:10:16;;;;;;;8.90;2.38;;;;;;;10.10;100.00;100372.06;6264383;28;20442;-83
2023/11/20 10:13:19;;;;;;;10.00;2.70;;;;;;;10.19;100.00;100378.59;6264178;28;20053;-80
2023/11/20 10:16:23;;;;;;;19.10;2.70;;;;;;;10.19;100.00;100372.47;6264278;28;20049;-79
2023/11/20 10:19:24;;;;;;;14.30;3.95;;;;;;;10.19;100.00;100375.09;6263713;28;20429;-79
2023/11/20 10:22:27;;;;;;;13.95;3.00;;;;;;;10.16;100.00;100371.72;6262295;28;20138;-78
2023/11/20 10:25:29;;;;;;;9.55;2.63;;;;;;;10.19;100.00;100367.22;6269884;28;20053;-79
2023/11/20 10:28:31;;;;;;;14.73;3.20;;;;;;;10.25;100.00;100377.41;6265258;28;20059;-78
2023/11/20 10:31:32;;;;;;;6.10;2.30;;;;;;;10.31;100.00;100369.16;6262826;28;20052;-82
2023/11/20 10:34:34;;;;;;;12.20;2.42;;;;;;;10.19;100.00;100362.81;6267185;28;20049;-79
2023/11/20 10:37:51;;;;;;;12.48;2.00;;;;;;;10.26;100.00;100353.66;6252427;28;20045;-82
2023/11/20 10:40:57;;;;;;;12.15;2.50;;;;;;;10.24;100.00;100365.19;6263398;28;20051;-81
2023/11/20 10:44:00;;;;;;;10.75;2.22;;;;;;;10.18;100.00;100357.69;6265083;28;20057;-80
2023/11/20 10:47:02;;;;;;;5.85;2.47;;;;;;;10.19;100.00;100351.47;6262855;28;20053;-82
2023/11/20 10:50:05;;;;;;;4.72;1.38;;;;;;;10.25;100.00;100359.03;6261404;28;20465;-81
2023/11/20 10:53:08;;;;;;;15.25;1.83;;;;;;;10.29;100.00;100360.53;6259540;28;20045;-82
2023/11/20 10:56:11;;;;;;;4.20;1.27;;;;;;;10.20;100.00;100361.03;6251692;28;20123;-80
2023/11/20 10:59:17;;;;;;;6.80;1.88;;;;;;;10.14;100.00;100363.09;6251492;28;20050;-80
2023/11/20 11:02:19;;;;;;;2.80;1.20;;;;;;;10.20;100.00;100377.63;6256950;28;20048;-81
2023/11/20 11:05:22;;;;;;;3.60;1.10;;;;;;;10.21;100.00;100365.34;6275821;28;20060;-83
2023/11/20 11:08:25;;;;;;;5.00;1.23;;;;;;;10.30;100.00;100355.19;6275260;28;20455;-81
2023/11/20 11:11:30;;;;;;;8.25;1.20;;;;;;;10.25;100.00;100365.13;6275526;28;20071;-79
2023/11/20 11:14:31;;;;;;;6.78;1.52;;;;;;;10.30;100.00;100363.06;6279329;22;20056;-76
2023/11/20 11:17:37;;;;;;;4.57;1.00;;;;;;;10.41;100.00;100355.41;6250763;28;20053;-76
2023/11/20 11:20:46;;;;;;;7.80;1.38;;;;;;;10.47;100.00;100356.84;6250655;28;20449;-76
2023/11/20 11:23:50;;;;;;;3.60;1.40;;;;;;;10.35;100.00;100353.13;6250749;28;20045;-75
2023/11/20 11:26:55;;;;;;;9.90;1.73;;;;;;;10.36;100.00;100360.09;6250740;28;20053;-75
2023/11/20 11:29:58;;;;;;;7.35;1.48;;;;;;;10.36;100.00;100365.34;6250513;28;20053;-75
2023/11/20 11:33:17;;;;;;;4.50;0.95;;;;;;;10.39;100.00;100372.19;6250402;28;20452;-75
2023/11/20 11:36:28;;;;;;;5.82;0.98;;;;;;;10.41;100.00;100370.34;6250523;28;20064;-75
2023/11/20 11:39:38;;;;;;;2.63;0.90;;;;;;;10.33;100.00;100367.31;6250586;28;20052;-75
2023/11/20 11:42:46;;;;;;;6.88;1.40;;;;;;;10.24;100.00;100366.06;6250247;28;20056;-74
2023/11/20 11:45:49;;;;;;;8.10;2.67;;;;;;;10.28;100.00;100364.09;6250344;28;20045;-76
2023/11/20 11:48:50;;;;;;;6.78;1.58;;;;;;;10.26;100.00;100371.22;6250587;28;20049;-76
2023/11/20 11:51:53;;;;;;;11.18;1.92;;;;;;;10.21;100.00;100373.22;6250254;28;20057;-75
2023/11/20 11:55:27;;;;;;;7.00;1.48;;;;;;;10.25;100.00;100365.13;6250663;28;20138;-73
2023/11/20 11:58:33;;;;;;;7.25;2.83;;;;;;;10.20;100.00;100355.78;6253452;28;20053;-72
2023/11/20 12:01:47;;;;;;;7.47;1.85;;;;;;;10.30;100.00;100363.06;6250115;28;20358;-72
2023/11/20 12:05:03;;;;;;;16.05;2.30;;;;;;;10.20;100.00;100361.88;6246537;28;20212;-71
2023/11/20 12:08:09;;;;;;;8.27;1.98;;;;;;;10.28;100.00;100358.84;6250045;28;20430;-73
2023/11/20 12:11:12;;;;;;;8.60;1.92;;;;;;;10.29;100.00;100361.38;6249993;28;20049;-73
2023/11/20 12:14:14;;;;;;;10.82;2.10;;;;;;;10.31;100.00;100358.66;6249832;28;20143;-73
2023/11/20 12:17:16;;;;;;;14.02;2.20;;;;;;;10.17;100.00;100354.16;6249981;28;20052;-72
2023/11/20 12:20:18;;;;;;;14.90;1.73;;;;;;;10.24;100.00;100367.81;6250213;28;20053;-71
2023/11/20 12:23:23;;;;;;;15.63;2.38;;;;;;;10.31;100.00;100356.03;6248746;28;20127;-70
2023/11/20 12:26:27;;;;;;;9.45;2.80;;;;;;;10.34;100.00;100353.22;6248963;28;20041;-71
2023/11/20 12:29:30;;;;;;;8.77;2.60;;;;;;;10.37;100.00;100358.31;6249632;28;20516;-71
2023/11/20 12:32:31;;;;;;;6.68;1.20;;;;;;;10.37;100.00;100359.16;6249888;28;20049;-72
2023/11/20 12:35:33;;;;;;;8.40;2.15;;;;;;;10.34;100.00;100361.94;6252519;28;20552;-71
2023/11/20 12:38:36;;;;;;;15.50;2.03;;;;;;;10.39;100.00;100356.44;6252511;28;20050;-72
2023/11/20 12:41:40;;;;;;;14.32;2.65;;;;;;;10.35;100.00;100354.91;6253109;28;20041;-71
2023/11/20 12:44:42;;;;;;;10.43;3.33;;;;;;;10.23;100.00;100356.47;6253942;28;20080;-72
2023/11/20 12:47:43;;;;;;;12.15;2.03;;;;;;;10.29;100.00;100366.63;6254374;28;20057;-71
2023/11/20 12:50:47;;;;;;;11.00;2.47;;;;;;;10.29;100.00;100357.91;6253938;28;20041;-72
2023/11/20 12:53:49;;;;;;;14.27;2.30;;;;;;;10.30;100.00;100356.97;6254024;28;20045;-73
2023/11/20 12:56:54;;;;;;;19.00;2.78;;;;;;;10.29;100.00;100353.50;6254006;28;20052;-73
2023/11/20 12:59:56;;;;;;;4.82;2.17;;;;;;;10.31;100.00;100356.91;6254398;28;20140;-73
2023/11/20 13:03:00;;;;;;;8.18;1.83;;;;;;;10.27;100.00;100351.91;6253684;28;20049;-73
2023/11/20 13:06:04;;;;;;;9.95;2.25;;;;;;;10.25;100.00;100349.34;6253940;28;20049;-74
2023/11/20 13:09:07;;;;;;;12.95;2.30;;;;;;;10.19;100.00;100354.09;6253650;28;20057;-74
2023/11/20 13:12:12;;;;;;;13.30;2.28;;;;;;;10.16;100.00;100347.25;6253457;28;20430;-72
2023/11/20 13:15:14;;;;;;;11.45;1.55;;;;;;;10.18;100.00;100361.13;6253507;28;20054;-73
2023/11/20 13:18:16;;;;;;;10.43;2.20;;;;;;;10.13;100.00;100353.53;6253907;28;20056;-73
2023/11/20 13:21:22;;;;;;;14.05;2.90;;;;;;;10.15;100.00;100351.66;6252513;28;20099;-73
2023/11/20 13:24:24;;;;;;;14.95;2.25;;;;;;;10.15;100.00;100348.19;6253263;28;20050;-73
2023/11/20 13:27:27;;;;;;;7.38;1.70;;;;;;;10.03;100.00;100351.50;6252713;28;20049;-72
2023/11/20 13:30:31;;;;;;;7.55;2.30;;;;;;;10.09;100.00;100357.25;6252919;28;20175;-72
2023/11/20 13:33:34;;;;;;;8.68;1.98;;;;;;;10.09;100.00;100362.50;6252973;28;20060;-71
2023/11/20 13:36:36;;;;;;;11.13;1.98;;;;;;;10.08;100.00;100362.59;6252887;28;20486;-71
2023/11/20 13:39:37;;;;;;;13.68;3.10;;;;;;;10.08;100.00;100362.59;6253150;28;20324;-72
2023/11/20 13:42:40;;;;;;;8.65;1.98;;;;;;;10.14;100.00;100357.84;6248913;28;20053;-72
2023/11/20 13:45:42;;;;;;;13.57;1.95;;;;;;;10.12;100.00;100361.47;6249274;28;20041;-72
2023/11/20 13:48:44;;;;;;;17.20;2.55;;;;;;;10.07;100.00;100367.00;6249756;28;20050;-73
2023/11/20 13:51:45;;;;;;;18.75;2.28;;;;;;;10.10;100.00;100372.06;6254352;28;20362;-72
2023/11/20 13:54:47;;;;;;;11.93;1.80;;;;;;;10.13;100.00;100369.28;6261934;28;20042;-72
2023/11/20 13:57:50;;;;;;;15.18;2.35;;;;;;;10.17;100.00;100367.31;6264767;28;20052;-72
2023/11/20 14:00:52;;;;;;;11.95;2.08;;;;;;;10.19;100.00;100365.44;6263935;28;20048;-72